createdAt,value
2023-04-30T00:00:26.211Z,15.95
2023-04-30T00:02:52.965Z,16.13
2023-04-30T00:05:19.855Z,17.45
2023-04-30T00:07:46.730Z,18.52
2023-04-30T00:10:13.355Z,18.35
2023-04-30T00:12:40.224Z,17.38
2023-04-30T00:15:07.376Z,16.38
2023-04-30T00:17:34.044Z,15.90
2023-04-30T00:20:01.253Z,16.40
2023-04-30T00:22:27.892Z,18.67
2023-04-30T00:24:54.501Z,18.92
2023-04-30T00:27:21.342Z,22.20
2023-04-30T00:29:47.974Z,23.15
2023-04-30T00:32:14.619Z,20.70
2023-04-30T00:34:41.308Z,20.00
2023-04-30T00:37:08.078Z,19.73
2023-04-30T00:39:34.698Z,18.63
2023-04-30T00:42:02.643Z,19.10
2023-04-30T00:44:29.281Z,20.42
2023-04-30T00:46:55.879Z,19.30
2023-04-30T00:49:22.619Z,23.95
2023-04-30T00:51:49.260Z,20.05
2023-04-30T00:54:15.877Z,20.55
2023-04-30T00:56:42.549Z,20.40
2023-04-30T00:59:09.306Z,20.40
2023-04-30T01:01:35.942Z,19.92
2023-04-30T01:04:02.701Z,21.70
2023-04-30T01:06:29.670Z,22.45
2023-04-30T01:08:57.375Z,21.35
2023-04-30T01:11:50.029Z,19.35
2023-04-30T01:14:28.474Z,20.45
2023-04-30T01:16:57.749Z,20.05
2023-04-30T01:19:42.770Z,20.25
2023-04-30T01:22:34.855Z,18.60
2023-04-30T01:25:07.725Z,21.88
2023-04-30T01:28:02.677Z,19.67
2023-04-30T01:30:30.817Z,22.27
2023-04-30T01:32:57.603Z,20.42
2023-04-30T01:35:59.901Z,23.75
2023-04-30T01:38:35.574Z,20.85
2023-04-30T01:41:37.426Z,20.17
2023-04-30T01:44:23.141Z,20.42
2023-04-30T01:47:13.108Z,21.02
2023-04-30T01:50:14.800Z,20.25
2023-04-30T01:52:43.798Z,19.73
2023-04-30T01:55:37.689Z,20.20
2023-04-30T01:58:06.545Z,21.20
2023-04-30T02:00:33.187Z,21.55
2023-04-30T02:02:59.920Z,21.58
2023-04-30T02:05:26.874Z,20.90
2023-04-30T02:07:53.555Z,19.02
2023-04-30T02:10:22.118Z,19.13
2023-04-30T02:12:48.969Z,19.67
2023-04-30T02:15:15.909Z,20.52
2023-04-30T02:17:42.597Z,17.63
2023-04-30T02:20:09.636Z,16.67
2023-04-30T02:22:36.726Z,15.65
2023-04-30T02:25:03.696Z,15.23
2023-04-30T02:27:31.131Z,12.75
2023-04-30T02:29:57.995Z,13.55
2023-04-30T02:32:24.670Z,13.80
2023-04-30T02:34:51.327Z,12.50
2023-04-30T02:37:18.028Z,11.95
2023-04-30T02:39:44.614Z,10.60
2023-04-30T02:42:11.299Z,10.52
2023-04-30T02:44:37.875Z,9.88
2023-04-30T02:47:04.552Z,9.63
2023-04-30T02:49:31.232Z,9.95
2023-04-30T02:51:57.833Z,11.15
2023-04-30T02:54:24.492Z,13.35
2023-04-30T02:56:51.113Z,12.52
2023-04-30T02:59:17.705Z,14.30
2023-04-30T03:01:44.511Z,14.07
2023-04-30T03:04:11.165Z,15.32
2023-04-30T03:06:38.031Z,15.75
2023-04-30T03:09:04.865Z,15.98
2023-04-30T03:11:31.502Z,14.55
2023-04-30T03:13:58.155Z,15.52
2023-04-30T03:16:24.806Z,15.18
2023-04-30T03:18:51.766Z,15.05
2023-04-30T03:21:19.144Z,15.10
2023-04-30T03:23:46.258Z,14.77
2023-04-30T03:26:13.006Z,16.05
2023-04-30T03:28:39.611Z,15.38
2023-04-30T03:31:06.379Z,14.73
2023-04-30T03:33:33.252Z,17.15
2023-04-30T03:35:59.948Z,16.08
2023-04-30T03:38:26.683Z,13.45
2023-04-30T03:40:53.292Z,16.27
2023-04-30T03:43:19.929Z,12.82
2023-04-30T03:45:46.944Z,15.48
2023-04-30T03:48:13.655Z,16.60
2023-04-30T03:50:40.298Z,14.27
2023-04-30T03:53:06.895Z,14.60
2023-04-30T03:55:34.134Z,14.50
2023-04-30T03:58:00.820Z,15.32
2023-04-30T04:00:27.410Z,15.63
2023-04-30T04:02:54.177Z,15.40
2023-04-30T04:05:21.215Z,13.63
2023-04-30T04:07:48.215Z,14.73
2023-04-30T04:10:14.891Z,13.75
2023-04-30T04:12:41.653Z,13.63
2023-04-30T04:15:09.015Z,13.02
2023-04-30T04:17:35.686Z,14.23
2023-04-30T04:20:02.499Z,13.60
2023-04-30T04:22:29.205Z,12.70
2023-04-30T04:24:56.478Z,12.38
2023-04-30T04:27:23.648Z,13.68
2023-04-30T04:29:50.314Z,14.25
2023-04-30T04:32:17.189Z,13.57
2023-04-30T04:34:44.103Z,14.55
2023-04-30T04:37:10.893Z,14.32
2023-04-30T04:39:37.658Z,13.48
2023-04-30T04:42:05.133Z,13.27
2023-04-30T04:44:32.561Z,13.80
2023-04-30T04:46:59.277Z,11.75
2023-04-30T04:49:25.976Z,10.77
2023-04-30T04:51:52.599Z,11.00
2023-04-30T04:54:21.324Z,11.50
2023-04-30T04:56:48.570Z,12.82
2023-04-30T04:59:15.551Z,11.88
2023-04-30T05:01:42.299Z,11.90
2023-04-30T05:04:09.865Z,11.52
2023-04-30T05:06:36.869Z,13.93
2023-04-30T05:09:05.458Z,14.75
2023-04-30T05:11:32.395Z,14.27
2023-04-30T05:13:59.019Z,14.15
2023-04-30T05:16:26.905Z,14.93
2023-04-30T05:18:53.566Z,15.00
2023-04-30T05:21:20.195Z,14.60
2023-04-30T05:23:47.113Z,11.52
2023-04-30T05:26:13.704Z,14.60
2023-04-30T05:28:40.392Z,14.10
2023-04-30T05:31:07.076Z,12.90
2023-04-30T05:33:33.979Z,13.88
2023-04-30T05:36:00.606Z,12.77
2023-04-30T05:38:27.324Z,12.75
2023-04-30T05:40:53.943Z,14.57
2023-04-30T05:43:20.665Z,14.30
2023-04-30T05:45:47.311Z,13.93
2023-04-30T05:48:14.151Z,13.93
2023-04-30T05:50:40.840Z,13.32
2023-04-30T05:53:07.451Z,13.38
2023-04-30T05:55:34.629Z,13.48
2023-04-30T05:58:01.243Z,12.52
2023-04-30T06:00:27.894Z,13.00
2023-04-30T06:02:54.721Z,14.68
2023-04-30T06:05:21.753Z,12.98
2023-04-30T06:07:48.511Z,12.23
2023-04-30T06:10:15.114Z,12.07
2023-04-30T06:12:41.763Z,12.98
2023-04-30T06:15:08.596Z,12.02
2023-04-30T06:17:35.439Z,11.85
2023-04-30T06:20:07.047Z,12.15
2023-04-30T06:22:34.248Z,12.43
2023-04-30T06:25:01.246Z,11.20
2023-04-30T06:27:28.260Z,9.50
2023-04-30T06:29:55.475Z,10.10
2023-04-30T06:32:22.337Z,10.30
2023-04-30T06:34:48.953Z,10.23
2023-04-30T06:37:15.848Z,9.88
2023-04-30T06:39:43.695Z,10.15
2023-04-30T06:42:10.392Z,10.85
2023-04-30T06:44:37.038Z,9.85
2023-04-30T06:47:03.689Z,10.45
2023-04-30T06:49:30.420Z,11.55
2023-04-30T06:51:58.552Z,10.38
2023-04-30T06:54:26.854Z,11.13
2023-04-30T06:56:53.746Z,10.82
2023-04-30T06:59:21.179Z,9.40
2023-04-30T07:01:47.809Z,9.55
2023-04-30T07:04:14.436Z,10.30
2023-04-30T07:06:41.197Z,10.95
2023-04-30T07:09:07.981Z,11.65
2023-04-30T07:11:34.599Z,11.38
2023-04-30T07:14:01.278Z,10.10
2023-04-30T07:16:28.216Z,11.23
2023-04-30T07:18:54.907Z,11.32
2023-04-30T07:21:22.014Z,11.27
2023-04-30T07:23:51.640Z,11.55
2023-04-30T07:26:18.572Z,12.00
2023-04-30T07:28:48.339Z,11.18
2023-04-30T07:31:15.086Z,11.25
2023-04-30T07:33:42.487Z,12.18
2023-04-30T07:36:09.134Z,11.07
2023-04-30T07:38:36.812Z,11.60
2023-04-30T07:41:03.488Z,11.52
2023-04-30T07:43:31.903Z,12.30
2023-04-30T07:45:59.434Z,10.52
2023-04-30T07:48:26.166Z,10.63
2023-04-30T07:50:53.107Z,10.23
2023-04-30T07:53:19.853Z,9.90
2023-04-30T07:55:46.638Z,10.45
2023-04-30T07:58:13.309Z,9.70
2023-04-30T08:00:39.954Z,10.57
2023-04-30T08:03:06.772Z,10.02
2023-04-30T08:05:33.501Z,10.50
2023-04-30T08:08:00.912Z,9.40
2023-04-30T08:10:27.606Z,9.82
2023-04-30T08:12:54.376Z,9.95
2023-04-30T08:15:21.982Z,9.63
2023-04-30T08:17:51.917Z,10.18
2023-04-30T08:20:19.025Z,8.73
2023-04-30T08:22:45.765Z,9.80
2023-04-30T08:25:12.505Z,9.40
2023-04-30T08:27:39.449Z,9.10
2023-04-30T08:30:07.466Z,9.60
2023-04-30T08:32:37.316Z,9.63
2023-04-30T08:35:07.889Z,9.60
2023-04-30T08:37:34.521Z,8.98
2023-04-30T08:40:01.191Z,8.80
2023-04-30T08:42:37.352Z,9.43
2023-04-30T08:45:04.704Z,9.52
2023-04-30T08:47:31.824Z,9.27
2023-04-30T08:49:58.536Z,9.05
2023-04-30T08:52:25.271Z,9.27
2023-04-30T08:54:51.895Z,9.20
2023-04-30T08:57:18.884Z,9.63
2023-04-30T08:59:47.511Z,9.57
2023-04-30T09:02:14.487Z,9.07
2023-04-30T09:04:41.289Z,10.50
2023-04-30T09:07:09.553Z,10.05
2023-04-30T09:09:39.615Z,10.93
2023-04-30T09:12:19.071Z,9.98
2023-04-30T09:15:00.113Z,10.75
2023-04-30T09:17:26.925Z,9.68
2023-04-30T09:19:53.918Z,10.48
2023-04-30T09:22:24.307Z,10.65
2023-04-30T09:24:51.429Z,9.57
2023-04-30T09:27:18.590Z,10.32
2023-04-30T09:29:46.544Z,9.77
2023-04-30T09:32:13.979Z,9.48
2023-04-30T09:34:41.016Z,10.52
2023-04-30T09:37:07.700Z,10.52
2023-04-30T09:39:34.561Z,10.70
2023-04-30T09:42:09.046Z,11.85
2023-04-30T09:44:40.497Z,8.35
2023-04-30T10:22:21.226Z,7.28
2023-04-30T10:24:48.599Z,7.85
2023-04-30T10:27:15.275Z,7.90
2023-04-30T10:29:41.972Z,8.18
2023-04-30T10:32:10.616Z,7.20
2023-04-30T10:34:50.275Z,7.82
2023-04-30T10:37:39.677Z,7.57
2023-04-30T10:40:09.209Z,7.93
2023-04-30T10:42:36.499Z,6.70
2023-04-30T10:45:06.449Z,6.70
2023-04-30T10:47:33.207Z,6.70
2023-04-30T10:50:09.148Z,6.82
2023-04-30T10:52:40.273Z,6.05
2023-04-30T10:55:08.584Z,5.97
2023-04-30T10:57:46.655Z,6.00
2023-04-30T11:00:14.573Z,6.22
2023-04-30T11:02:43.729Z,6.30
2023-04-30T11:05:15.184Z,5.43
2023-04-30T11:07:52.410Z,5.95
2023-04-30T11:10:23.353Z,6.07
2023-04-30T11:12:54.854Z,5.65
2023-04-30T11:15:24.919Z,5.20
2023-04-30T11:17:51.954Z,4.90
2023-04-30T11:20:23.471Z,4.70
2023-04-30T11:23:09.087Z,4.93
2023-04-30T11:25:46.063Z,5.13
2023-04-30T11:28:26.079Z,5.05
2023-04-30T11:30:59.201Z,4.70
2023-04-30T11:33:35.860Z,4.95
2023-04-30T11:36:02.751Z,4.72
2023-04-30T11:38:30.859Z,4.70
2023-04-30T11:40:58.155Z,4.90
2023-04-30T11:43:26.455Z,4.80
2023-04-30T11:46:01.942Z,4.85
2023-04-30T11:48:35.586Z,4.85
2023-04-30T11:51:24.306Z,5.60
2023-04-30T11:53:51.952Z,4.80
2023-04-30T11:56:25.798Z,5.25
2023-04-30T11:58:53.138Z,5.68
2023-04-30T16:10:20.222Z,5.00
2023-04-30T16:12:47.053Z,5.10
2023-04-30T16:15:13.673Z,4.78
2023-04-30T16:17:40.638Z,4.43
2023-04-30T16:20:08.499Z,4.53
2023-04-30T16:22:35.243Z,4.00
2023-04-30T16:25:01.958Z,4.25
2023-04-30T16:27:28.560Z,4.32
2023-04-30T16:29:55.491Z,4.20
2023-04-30T16:32:22.426Z,4.57
2023-04-30T16:34:49.184Z,4.50
2023-04-30T16:37:15.875Z,4.40
2023-04-30T16:39:42.601Z,4.57
2023-04-30T16:42:09.386Z,4.35
2023-04-30T16:44:36.066Z,4.30
2023-04-30T16:47:02.931Z,4.20
2023-04-30T16:49:29.636Z,4.38
2023-04-30T16:51:56.362Z,4.15
2023-04-30T16:54:23.434Z,4.53
2023-04-30T16:56:50.128Z,4.07
2023-04-30T16:59:16.729Z,4.82
2023-04-30T17:01:43.466Z,4.50
2023-04-30T17:04:11.894Z,4.68
2023-04-30T17:06:39.128Z,4.15
2023-04-30T17:09:06.185Z,4.47
2023-04-30T17:11:33.878Z,4.40
2023-04-30T17:14:00.723Z,4.20
2023-04-30T17:16:27.676Z,4.22
2023-04-30T17:18:54.396Z,4.20
2023-04-30T17:21:21.031Z,5.18
2023-04-30T17:23:47.731Z,5.57
2023-04-30T17:26:14.344Z,4.80
2023-04-30T17:28:41.035Z,4.93
2023-04-30T17:31:08.005Z,4.18
2023-04-30T17:33:35.013Z,4.20
2023-04-30T17:36:01.693Z,4.10
2023-04-30T17:38:28.411Z,3.88
2023-04-30T17:40:56.739Z,4.20
2023-04-30T17:43:23.906Z,4.22
2023-04-30T17:45:53.812Z,4.13
2023-04-30T17:48:20.761Z,4.05
2023-04-30T17:50:47.466Z,4.32
2023-04-30T17:53:14.211Z,4.57
2023-04-30T17:55:40.961Z,4.50
2023-04-30T17:58:10.231Z,4.50
2023-04-30T18:00:38.771Z,4.57
2023-04-30T18:03:06.633Z,4.70
2023-04-30T18:05:35.578Z,4.43
2023-04-30T18:08:02.522Z,3.90
2023-04-30T18:10:29.262Z,3.83
2023-04-30T18:12:58.133Z,3.85
2023-04-30T18:15:25.032Z,4.03
2023-04-30T18:17:51.797Z,5.25
2023-04-30T18:20:18.495Z,4.60
2023-04-30T18:22:45.191Z,3.60
2023-04-30T18:25:13.497Z,3.47
2023-04-30T18:27:43.615Z,4.63
2023-04-30T18:30:10.657Z,3.92
2023-04-30T18:32:37.540Z,4.20
2023-04-30T18:35:04.733Z,4.32
2023-04-30T18:37:32.051Z,4.35
2023-04-30T18:39:59.229Z,4.40
2023-04-30T18:42:25.856Z,4.53
2023-04-30T18:44:52.666Z,4.25
2023-04-30T18:47:19.596Z,4.30
2023-04-30T18:49:46.310Z,4.70
2023-04-30T18:52:12.967Z,4.28
2023-04-30T18:54:39.614Z,4.80
2023-04-30T18:57:06.798Z,4.60
2023-04-30T18:59:33.424Z,4.78
2023-04-30T19:02:00.311Z,4.13
2023-04-30T19:04:27.366Z,4.60
2023-04-30T19:06:55.750Z,4.43
2023-04-30T19:09:22.608Z,4.75
2023-04-30T19:11:49.380Z,4.15
2023-04-30T19:14:16.071Z,4.80
2023-04-30T19:16:42.862Z,4.30
2023-04-30T19:19:09.513Z,5.72
2023-04-30T19:21:36.523Z,4.63
2023-04-30T19:24:05.917Z,4.65
2023-04-30T19:26:32.919Z,4.43
2023-04-30T19:29:00.174Z,4.85
2023-04-30T19:31:26.983Z,4.70
2023-04-30T19:33:53.653Z,4.80
2023-04-30T19:36:20.410Z,5.28
2023-04-30T19:38:47.147Z,5.13
2023-04-30T19:41:14.152Z,5.25
2023-04-30T19:43:41.020Z,4.78
2023-04-30T19:46:07.752Z,5.25
2023-04-30T19:48:34.494Z,5.40
2023-04-30T19:51:03.669Z,5.78
2023-04-30T19:53:30.453Z,5.22
2023-04-30T19:55:57.119Z,5.28
2023-04-30T19:58:24.058Z,4.40
2023-04-30T20:00:50.905Z,4.97
2023-04-30T20:03:17.864Z,6.18
2023-04-30T20:05:44.937Z,5.95
2023-04-30T20:08:11.638Z,6.25
2023-04-30T20:10:38.441Z,4.72
2023-04-30T20:13:05.633Z,4.88
2023-04-30T20:15:32.995Z,4.68
2023-04-30T20:18:01.340Z,4.68
2023-04-30T20:20:28.540Z,4.68
2023-04-30T20:22:55.195Z,5.35
2023-04-30T20:25:22.448Z,6.33
2023-04-30T20:27:49.416Z,6.95
2023-04-30T20:30:16.432Z,6.63
2023-04-30T20:32:43.333Z,4.97
2023-04-30T20:35:10.196Z,5.75
2023-04-30T20:37:37.403Z,7.57
2023-04-30T20:40:04.722Z,7.83
2023-04-30T20:42:31.398Z,6.55
2023-04-30T20:44:58.001Z,6.43
2023-04-30T20:47:24.617Z,6.20
2023-04-30T20:49:51.352Z,7.23
2023-04-30T20:52:18.717Z,6.03
2023-04-30T20:54:45.870Z,6.70
2023-04-30T20:57:12.878Z,6.33
2023-04-30T20:59:39.496Z,7.23
2023-04-30T21:02:06.514Z,7.17
2023-04-30T21:04:33.256Z,6.27
2023-04-30T21:06:59.949Z,7.73
2023-04-30T21:09:26.633Z,7.37
2023-04-30T21:11:53.567Z,6.23
2023-04-30T21:14:21.261Z,5.70
2023-04-30T21:16:47.935Z,5.07
2023-04-30T21:19:14.598Z,5.43
2023-04-30T21:21:41.248Z,9.13
2023-04-30T21:24:08.844Z,10.93
2023-04-30T21:26:35.483Z,6.90
2023-04-30T21:29:02.937Z,6.53
2023-04-30T21:31:29.680Z,6.20
2023-04-30T21:33:56.471Z,5.97
2023-04-30T21:36:23.524Z,5.03
2023-04-30T21:38:50.169Z,10.27
2023-04-30T21:41:16.997Z,9.03
2023-04-30T21:43:43.827Z,7.63
2023-04-30T21:46:11.138Z,6.20
2023-04-30T21:48:38.489Z,5.33
2023-04-30T21:51:12.624Z,6.77
2023-04-30T21:53:39.485Z,7.85
2023-04-30T21:56:09.633Z,11.67
2023-04-30T21:58:36.486Z,10.87
2023-04-30T22:01:04.627Z,10.60
2023-04-30T22:03:31.882Z,8.30
2023-04-30T22:05:58.840Z,7.30
2023-04-30T22:08:25.568Z,9.27
2023-04-30T22:10:59.454Z,7.57
2023-04-30T22:13:27.595Z,8.57
2023-04-30T22:15:54.490Z,8.20
2023-04-30T22:18:22.029Z,9.77
2023-04-30T22:20:49.555Z,9.10
2023-04-30T22:23:16.730Z,8.70
2023-04-30T22:25:43.642Z,7.73
2023-04-30T22:28:10.358Z,6.80
2023-04-30T22:30:37.845Z,6.43
2023-04-30T22:33:04.608Z,7.30
2023-04-30T22:35:32.841Z,7.20
2023-04-30T22:38:00.647Z,7.53
2023-04-30T22:40:27.273Z,7.03
2023-04-30T22:42:54.027Z,6.50
2023-04-30T22:45:20.762Z,7.50
2023-04-30T22:47:47.446Z,6.93
2023-04-30T22:50:14.073Z,8.20
2023-04-30T22:52:40.862Z,7.37
2023-04-30T22:55:08.216Z,7.70
2023-04-30T22:57:35.036Z,7.00
2023-04-30T23:00:01.793Z,6.17
2023-04-30T23:02:28.821Z,7.77
2023-04-30T23:04:55.625Z,7.70
2023-04-30T23:07:22.382Z,7.10
2023-04-30T23:09:49.012Z,7.67
2023-04-30T23:12:16.049Z,6.90
2023-04-30T23:14:42.677Z,7.37
2023-04-30T23:17:09.490Z,6.80
2023-04-30T23:19:36.230Z,6.47
2023-04-30T23:22:02.904Z,6.13
2023-04-30T23:24:35.103Z,6.73
2023-04-30T23:27:03.219Z,6.17
2023-04-30T23:29:29.900Z,5.93
2023-04-30T23:31:56.817Z,11.10
2023-04-30T23:34:23.598Z,11.17
2023-04-30T23:36:50.346Z,9.67
2023-04-30T23:39:17.161Z,9.30
2023-04-30T23:41:43.875Z,8.30
2023-04-30T23:44:10.595Z,7.83
2023-04-30T23:46:37.296Z,7.33
2023-04-30T23:49:49.616Z,6.53
2023-04-30T23:52:16.376Z,7.30
2023-04-30T23:54:43.321Z,7.37
2023-04-30T23:57:10.300Z,8.37
2023-04-30T23:59:37.081Z,8.93
